createdAt,value
2018-09-03T00:00:50.221Z,2.50
2018-09-03T00:05:54.070Z,2.90
2018-09-03T00:10:58.104Z,2.83
2018-09-03T00:16:02.161Z,2.70
2018-09-03T00:21:05.929Z,2.90
2018-09-03T00:26:10.021Z,2.90
2018-09-03T00:31:19.269Z,2.80
2018-09-03T00:36:28.437Z,3.17
2018-09-03T00:41:37.613Z,3.17
2018-09-03T00:46:46.717Z,3.00
2018-09-03T00:51:50.729Z,3.10
2018-09-03T00:56:54.809Z,2.80
2018-09-03T01:01:58.821Z,3.20
2018-09-03T01:07:02.607Z,2.93
2018-09-03T01:12:06.680Z,3.30
2018-09-03T01:17:10.469Z,3.40
2018-09-03T01:22:14.498Z,3.47
2018-09-03T01:27:18.581Z,3.37
2018-09-03T01:32:22.631Z,3.10
2018-09-03T01:37:26.637Z,3.47
2018-09-03T01:42:30.647Z,3.40
2018-09-03T01:47:34.721Z,2.97
2018-09-03T01:52:38.744Z,3.40
2018-09-03T01:57:43.577Z,3.27
2018-09-03T02:02:47.661Z,3.63
2018-09-03T02:07:51.745Z,3.40
2018-09-03T02:12:55.595Z,3.70
2018-09-03T02:17:59.714Z,3.67
2018-09-03T02:23:03.681Z,3.23
2018-09-03T02:28:07.749Z,3.13
2018-09-03T02:33:11.573Z,3.60
2018-09-03T02:38:15.409Z,3.33
2018-09-03T02:43:19.541Z,3.37
2018-09-03T02:48:23.622Z,3.77
2018-09-03T02:53:27.774Z,3.40
2018-09-03T02:58:31.974Z,3.70
2018-09-03T03:03:35.799Z,3.55
2018-09-03T03:08:40.256Z,3.73
2018-09-03T03:13:44.363Z,3.67
2018-09-03T03:18:48.434Z,3.40
2018-09-03T03:23:52.450Z,3.50
2018-09-03T03:28:56.224Z,3.80
2018-09-03T03:34:00.361Z,3.90
2018-09-03T03:39:06.217Z,3.90
2018-09-03T03:44:10.241Z,3.43
2018-09-03T03:49:14.242Z,3.73
2018-09-03T03:54:18.244Z,3.57
2018-09-03T03:59:22.334Z,3.73
2018-09-03T04:04:26.361Z,3.67
2018-09-03T04:09:30.463Z,3.50
2018-09-03T04:14:34.482Z,3.63
2018-09-03T04:19:38.537Z,3.83
2018-09-03T04:24:42.350Z,4.13
2018-09-03T04:29:46.414Z,3.70
2018-09-03T04:34:50.213Z,4.20
2018-09-03T04:39:54.265Z,4.10
2018-09-03T04:44:58.294Z,3.70
2018-09-03T04:50:02.077Z,3.70
2018-09-03T04:55:05.900Z,4.00
2018-09-03T05:00:09.729Z,4.00
2018-09-03T05:05:13.843Z,3.90
2018-09-03T05:10:17.553Z,3.90
2018-09-03T05:15:21.353Z,4.20
2018-09-03T05:20:25.152Z,4.20
2018-09-03T05:25:29.228Z,4.00
2018-09-03T05:30:33.029Z,4.53
2018-09-03T05:35:37.098Z,4.50
2018-09-03T05:40:41.389Z,4.30
2018-09-03T05:45:46.089Z,4.83
2018-09-03T05:50:50.117Z,4.85
2018-09-03T05:55:53.977Z,5.03
2018-09-03T06:00:58.103Z,4.60
2018-09-03T06:06:02.498Z,4.47
2018-09-03T06:11:07.614Z,5.40
2018-09-03T06:16:11.409Z,5.13
2018-09-03T06:21:15.604Z,4.90
2018-09-03T06:26:19.413Z,5.70
2018-09-03T06:31:23.503Z,5.30
2018-09-03T06:36:27.274Z,5.40
2018-09-03T06:41:32.069Z,5.53
2018-09-03T06:46:35.873Z,5.63
2018-09-03T06:51:39.915Z,5.70
2018-09-03T06:56:43.937Z,5.57
2018-09-03T07:01:47.751Z,5.80
2018-09-03T07:06:51.797Z,5.50
2018-09-03T07:11:55.525Z,5.07
2018-09-03T07:16:59.546Z,4.70
2018-09-03T07:22:03.646Z,4.30
2018-09-03T07:27:07.450Z,4.53
2018-09-03T07:32:11.503Z,4.43
2018-09-03T07:37:15.550Z,4.50
2018-09-03T07:42:19.338Z,5.13
2018-09-03T07:47:23.486Z,4.93
2018-09-03T07:52:27.533Z,5.10
2018-09-03T07:57:31.574Z,4.67
2018-09-03T08:02:35.369Z,4.80
2018-09-03T08:07:39.442Z,4.50
2018-09-03T08:12:43.454Z,4.50
2018-09-03T08:17:47.508Z,4.40
2018-09-03T08:22:51.549Z,5.47
2018-09-03T08:27:55.373Z,5.70
2018-09-03T08:32:59.169Z,5.20
2018-09-03T08:38:03.225Z,5.30
2018-09-03T08:43:07.056Z,5.83
2018-09-03T08:48:11.119Z,5.87
2018-09-03T08:53:15.175Z,6.03
2018-09-03T08:58:19.221Z,5.97
2018-09-03T09:03:28.317Z,5.60
2018-09-03T09:08:32.385Z,6.33
2018-09-03T09:13:36.426Z,6.20
2018-09-03T09:18:40.445Z,5.77
2018-09-03T09:23:44.530Z,5.83
2018-09-03T09:28:48.304Z,6.50
2018-09-03T09:33:53.278Z,6.60
2018-09-03T09:38:57.060Z,6.03
2018-09-03T09:44:01.705Z,7.27
2018-09-03T09:49:05.488Z,7.30
2018-09-03T09:54:09.654Z,7.30
2018-09-03T09:59:13.697Z,6.17
2018-09-03T10:04:17.762Z,7.00
2018-09-03T10:09:21.766Z,7.83
2018-09-03T10:14:25.604Z,7.60
2018-09-03T10:19:29.626Z,8.27
2018-09-03T10:24:33.436Z,7.83
2018-09-03T10:29:37.447Z,7.33
2018-09-03T10:34:41.616Z,7.90
2018-09-03T10:39:45.645Z,9.20
2018-09-03T10:44:49.427Z,8.13
2018-09-03T10:49:53.257Z,7.50
2018-09-03T10:54:57.374Z,7.73
2018-09-03T11:00:01.471Z,7.50
2018-09-03T11:05:05.524Z,6.80
2018-09-03T11:10:09.702Z,8.20
2018-09-03T11:15:20.646Z,7.50
2018-09-03T11:20:30.605Z,8.17
2018-09-03T11:25:35.161Z,8.30
2018-09-03T11:30:39.310Z,8.23
2018-09-03T11:35:43.365Z,7.97
2018-09-03T11:40:47.423Z,7.30
2018-09-03T11:45:51.453Z,7.10
2018-09-03T11:50:55.246Z,7.87
2018-09-03T11:55:59.306Z,7.60
2018-09-03T12:01:03.349Z,7.43
2018-09-03T12:06:07.125Z,7.53
2018-09-03T12:11:10.902Z,8.60
2018-09-03T12:16:17.686Z,7.57
2018-09-03T12:21:21.706Z,7.80
2018-09-03T12:26:25.750Z,8.50
2018-09-03T12:31:29.760Z,7.93
2018-09-03T12:36:33.773Z,7.80
2018-09-03T12:41:37.569Z,8.23
2018-09-03T12:46:41.580Z,8.40
2018-09-03T12:51:45.385Z,8.10
2018-09-03T12:56:49.676Z,8.17
2018-09-03T13:01:53.715Z,8.90
2018-09-03T13:06:57.761Z,8.70
2018-09-03T13:12:01.878Z,9.80
2018-09-03T13:17:05.693Z,8.93
2018-09-03T13:22:10.120Z,9.57
2018-09-03T13:27:14.408Z,9.23
2018-09-03T13:32:18.425Z,9.70
2018-09-03T13:37:22.264Z,8.98
2018-09-03T13:42:26.380Z,9.80
2018-09-03T13:47:30.370Z,9.50
2018-09-03T13:52:34.465Z,9.50
2018-09-03T13:57:38.797Z,10.37
2018-09-03T14:02:42.650Z,9.87
2018-09-03T14:07:46.706Z,10.13
2018-09-03T14:12:50.747Z,9.50
2018-09-03T14:17:54.765Z,8.73
2018-09-03T14:22:59.000Z,9.37
2018-09-03T14:28:03.032Z,9.10
2018-09-03T14:33:08.049Z,9.47
2018-09-03T14:38:12.104Z,8.17
2018-09-03T14:43:16.197Z,8.60
2018-09-03T14:48:20.230Z,8.13
2018-09-03T14:53:24.383Z,9.03
2018-09-03T14:58:28.412Z,8.53
2018-09-03T15:03:32.931Z,8.47
2018-09-03T15:08:37.093Z,7.77
2018-09-03T15:13:40.916Z,7.10
2018-09-03T15:18:44.824Z,7.03
2018-09-03T15:23:49.135Z,7.10
2018-09-03T15:28:53.292Z,6.23
2018-09-03T15:33:57.412Z,6.80
2018-09-03T15:39:01.481Z,8.03
2018-09-03T15:44:05.730Z,6.73
2018-09-03T15:49:09.951Z,8.50
2018-09-03T15:54:14.039Z,7.73
2018-09-03T15:59:17.994Z,8.10
2018-09-03T16:04:22.661Z,8.60
2018-09-03T16:09:26.686Z,8.60
2018-09-03T16:14:37.450Z,8.00
2018-09-03T16:19:41.655Z,7.30
2018-09-03T16:24:45.441Z,8.47
2018-09-03T16:29:49.546Z,8.93
2018-09-03T16:34:53.625Z,9.23
2018-09-03T16:39:57.673Z,8.77
2018-09-03T16:45:01.570Z,8.60
2018-09-03T16:50:05.670Z,8.53
2018-09-03T16:55:09.788Z,9.73
2018-09-03T17:00:13.952Z,8.17
2018-09-03T17:05:17.737Z,8.50
2018-09-03T17:10:21.789Z,7.70
2018-09-03T17:15:25.583Z,8.50
2018-09-03T17:20:29.798Z,7.93
2018-09-03T17:25:33.737Z,8.00
2018-09-03T17:30:37.935Z,8.50
2018-09-03T17:35:41.950Z,8.90
2018-09-03T17:40:46.109Z,8.70
2018-09-03T17:45:49.965Z,9.88
2018-09-03T17:50:54.034Z,9.73
2018-09-03T17:55:57.929Z,8.60
2018-09-03T18:01:02.236Z,8.73
2018-09-03T18:06:06.889Z,8.97
2018-09-03T18:11:10.676Z,8.73
2018-09-03T18:16:14.764Z,8.57
2018-09-03T18:21:18.767Z,9.00
2018-09-03T18:26:22.893Z,9.00
2018-09-03T18:31:26.718Z,9.37
2018-09-03T18:36:30.895Z,9.60
2018-09-03T18:41:34.669Z,9.07
2018-09-03T18:46:38.711Z,9.57
2018-09-03T18:51:42.746Z,10.53
2018-09-03T18:56:46.825Z,10.90
2018-09-03T19:01:50.773Z,10.63
2018-09-03T19:06:54.871Z,10.73
2018-09-03T19:11:58.710Z,10.10
2018-09-03T19:17:02.614Z,10.93
2018-09-03T19:22:06.695Z,12.50
2018-09-03T19:27:11.001Z,11.97
2018-09-03T19:32:14.885Z,12.63
2018-09-03T19:37:18.760Z,11.73
2018-09-03T19:42:22.810Z,11.97
2018-09-03T19:47:26.849Z,12.55
2018-09-03T19:52:30.961Z,12.87
2018-09-03T19:57:35.106Z,12.40
2018-09-03T20:02:38.993Z,13.77
2018-09-03T20:07:42.789Z,13.47
2018-09-03T20:12:46.968Z,14.93
2018-09-03T20:17:50.793Z,15.43
2018-09-03T20:22:54.948Z,15.90
2018-09-03T20:27:58.965Z,17.73
2018-09-03T20:33:02.809Z,18.63
2018-09-03T20:38:07.061Z,18.40
2018-09-03T20:43:11.113Z,18.10
2018-09-03T20:48:15.254Z,20.43
2018-09-03T20:53:19.305Z,19.87
2018-09-03T20:58:23.430Z,20.53
2018-09-03T21:03:27.269Z,20.37
2018-09-03T21:08:31.370Z,19.00
2018-09-03T21:13:35.381Z,19.57
2018-09-03T21:18:39.614Z,18.97
2018-09-03T21:23:43.753Z,21.17
2018-09-03T21:28:47.526Z,19.97
2018-09-03T21:33:51.346Z,20.47
2018-09-03T21:38:55.412Z,20.00
2018-09-03T21:43:59.183Z,19.03
2018-09-03T21:49:03.022Z,20.00
2018-09-03T21:54:06.973Z,19.80
2018-09-03T21:59:11.076Z,18.13
2018-09-03T22:04:14.930Z,20.97
2018-09-03T22:09:19.063Z,19.40
2018-09-03T22:14:22.915Z,21.27
2018-09-03T22:19:26.962Z,19.83
2018-09-03T22:24:31.163Z,18.97
2018-09-03T22:29:34.965Z,20.90
2018-09-03T22:34:38.839Z,20.57
2018-09-03T22:39:42.903Z,21.70
2018-09-03T22:44:47.026Z,21.23
2018-09-03T22:49:50.890Z,21.47
2018-09-03T22:54:55.330Z,21.03
2018-09-03T22:59:59.138Z,20.90
2018-09-03T23:05:03.057Z,23.43
2018-09-03T23:10:07.478Z,23.40
2018-09-03T23:15:11.498Z,22.40
2018-09-03T23:20:15.298Z,21.77
2018-09-03T23:25:19.385Z,22.23
2018-09-03T23:30:23.897Z,23.10
2018-09-03T23:35:27.697Z,27.07
2018-09-03T23:40:32.737Z,26.87
2018-09-03T23:45:36.819Z,26.20
2018-09-03T23:50:40.896Z,25.80
2018-09-03T23:55:44.937Z,27.03
